Time;durP1;ratioP1;P1;durP2;ratioP2;P2;SDS_P1;SDS_P2;PMS_P1;PMS_P2;Temp;Humidity;BMP_temperature;BMP_pressure;BME280_temperature;BME280_humidity;BME280_pressure;Samples;Min_cycle;Max_cycle;Signal;HPM_P1;HPM_P2
2022/10/18 00:00:59;;;;;;;0.00;0.00;;;;;;;8.11;100.00;101286.97;5096558;28;20038;-68
2022/10/18 00:03:25;;;;;;;0.05;0.05;;;;;;;8.04;100.00;101282.94;5097409;28;20027;-69
2022/10/18 00:05:51;;;;;;;0.00;0.00;;;;;;;8.05;100.00;101281.13;5115897;28;20590;-69
2022/10/18 00:08:17;;;;;;;0.00;0.00;;;;;;;7.99;100.00;101287.72;5115304;28;20035;-67
2022/10/18 00:10:44;;;;;;;0.55;0.38;;;;;;;7.94;100.00;101280.94;5096630;28;20015;-68
2022/10/18 00:13:09;;;;;;;0.00;0.00;;;;;;;7.91;100.00;101284.66;5096447;28;20404;-69
2022/10/18 00:15:35;;;;;;;0.00;0.00;;;;;;;8.06;100.00;101273.03;5096395;28;20030;-67
2022/10/18 00:18:01;;;;;;;0.00;0.00;;;;;;;8.00;100.00;101267.16;5096465;28;20027;-69
2022/10/18 00:20:26;;;;;;;0.00;0.00;;;;;;;7.90;100.00;101261.53;5096334;28;20545;-68
2022/10/18 00:22:52;;;;;;;0.00;0.00;;;;;;;7.97;100.00;101260.19;5114647;28;20035;-68
2022/10/18 00:25:18;;;;;;;0.00;0.00;;;;;;;7.96;100.00;101249.56;5114847;28;20023;-69
2022/10/18 00:27:43;;;;;;;0.00;0.00;;;;;;;7.87;100.00;101252.78;5096766;28;20467;-67
2022/10/18 00:30:09;;;;;;;0.00;0.00;;;;;;;7.92;100.00;101251.59;5114869;28;20099;-65
2022/10/18 00:32:38;;;;;;;0.00;0.00;;;;;;;7.95;100.00;101264.78;5114558;28;20027;-63
2022/10/18 00:35:04;;;;;;;1.02;0.32;;;;;;;8.02;100.00;101266.09;5114027;28;20126;-64
2022/10/18 00:37:30;;;;;;;0.00;0.00;;;;;;;8.00;100.00;101272.53;5095608;28;20023;-62
2022/10/18 00:39:56;;;;;;;0.00;0.00;;;;;;;7.98;100.00;101271.75;5095303;28;20377;-63
2022/10/18 00:42:26;;;;;;;0.00;0.00;;;;;;;7.98;100.00;101269.94;5096270;28;20035;-63
2022/10/18 00:45:19;;;;;;;0.52;0.15;;;;;;;7.89;100.00;101273.16;5096114;28;20072;-62
2022/10/18 00:47:52;;;;;;;2.97;1.27;;;;;;;7.91;100.00;101284.66;5095518;28;20032;-61
2022/10/18 00:50:19;;;;;;;3.92;0.80;;;;;;;7.91;100.00;101271.28;5114480;28;20097;-62
2022/10/18 00:52:49;;;;;;;5.18;1.08;;;;;;;7.81;100.00;101272.78;5096052;28;20033;-63
2022/10/18 00:55:15;;;;;;;5.93;0.73;;;;;;;7.80;100.00;101282.63;5113946;28;20111;-61
2022/10/18 00:57:42;;;;;;;2.70;0.70;;;;;;;7.82;100.00;101272.69;5114168;28;20085;-61
2022/10/18 01:00:09;;;;;;;4.35;0.70;;;;;;;7.86;100.00;101268.00;5114733;28;20023;-62
2022/10/18 01:02:40;;;;;;;5.05;0.80;;;;;;;7.92;100.00;101258.75;5114498;28;20115;-60
2022/10/18 01:05:07;;;;;;;6.32;1.00;;;;;;;7.97;100.00;101246.78;5114344;28;20039;-60
2022/10/18 01:08:05;;;;;;;3.22;0.75;;;;;;;8.00;100.00;101238.56;5114732;28;20031;-61
2022/10/18 01:10:39;;;;;;;4.65;1.05;;;;;;;7.97;100.00;101236.09;5095945;28;20027;-61
2022/10/18 01:13:32;;;;;;;5.78;0.88;;;;;;;7.87;100.00;101234.06;5114059;28;20020;-59
2022/10/18 01:16:27;;;;;;;5.07;0.90;;;;;;;7.90;100.00;101229.41;5114323;28;20039;-59
2022/10/18 01:19:30;;;;;;;6.03;1.95;;;;;;;7.94;100.00;101217.53;5113543;28;20020;-59
2022/10/18 01:22:23;;;;;;;4.75;1.70;;;;;;;7.72;100.00;101193.03;5077802;28;20040;-65
2022/10/18 01:25:30;;;;;;;6.65;1.42;;;;;;;7.75;100.00;101182.16;5113519;28;20045;-62
2022/10/18 01:28:01;;;;;;;6.30;2.33;;;;;;;7.80;100.00;101196.09;5081648;28;20040;-62
2022/10/18 01:30:47;;;;;;;3.28;1.30;;;;;;;7.91;100.00;101209.69;5113269;28;20039;-63
2022/10/18 01:33:45;;;;;;;4.13;1.38;;;;;;;7.98;100.00;101221.75;5094707;28;20031;-64
2022/10/18 01:36:22;;;;;;;5.07;1.30;;;;;;;7.96;100.00;101226.34;5094912;28;20032;-63
2022/10/18 01:38:52;;;;;;;2.17;0.60;;;;;;;7.83;100.00;101233.38;5113477;28;20024;-63
2022/10/18 01:41:22;;;;;;;0.60;0.30;;;;;;;7.83;100.00;101233.38;5094534;28;20106;-62
2022/10/18 01:43:51;;;;;;;3.35;0.75;;;;;;;7.92;100.00;101232.84;5113318;28;20027;-62
2022/10/18 01:46:21;;;;;;;2.70;0.55;;;;;;;7.79;100.00;101238.06;5094753;28;20023;-63
2022/10/18 01:48:49;;;;;;;3.42;0.85;;;;;;;7.75;100.00;101235.69;5094853;28;20058;-64
2022/10/18 01:51:27;;;;;;;8.05;1.10;;;;;;;7.87;100.00;101250.97;5113049;28;20038;-62
2022/10/18 01:53:54;;;;;;;3.75;1.05;;;;;;;7.81;100.00;101252.22;5094745;28;20020;-63
2022/10/18 01:56:26;;;;;;;4.00;0.80;;;;;;;7.91;100.00;101252.53;5094560;28;20031;-61
2022/10/18 01:59:15;;;;;;;4.22;1.10;;;;;;;7.98;100.00;101259.22;5094564;28;20047;-61
2022/10/18 02:01:53;;;;;;;5.55;1.20;;;;;;;8.00;100.00;101256.44;5113297;28;20023;-65
2022/10/18 02:04:54;;;;;;;4.32;1.40;;;;;;;8.01;100.00;101259.03;5113215;28;20100;-63
2022/10/18 02:07:43;;;;;;;6.30;1.00;;;;;;;8.08;100.00;101260.41;5072164;28;20105;-64
2022/10/18 02:10:31;;;;;;;4.82;1.10;;;;;;;7.97;100.00;101262.88;5094508;28;20027;-65
2022/10/18 02:12:58;;;;;;;4.80;1.40;;;;;;;7.93;100.00;101257.78;5094095;28;20027;-66
2022/10/18 02:15:38;;;;;;;3.15;1.30;;;;;;;8.02;100.00;101267.94;5112281;28;20035;-66
2022/10/18 02:18:27;;;;;;;4.90;1.45;;;;;;;7.92;100.00;101264.97;5112744;28;20031;-65
2022/10/18 02:20:53;;;;;;;5.85;1.52;;;;;;;7.91;100.00;101251.69;5112822;28;20027;-66
2022/10/18 02:23:24;;;;;;;6.80;1.33;;;;;;;7.94;100.00;101241.63;5112048;28;20368;-65
2022/10/18 02:25:50;;;;;;;8.05;1.50;;;;;;;7.84;100.00;101238.66;5112321;28;20027;-67
2022/10/18 02:28:16;;;;;;;6.18;2.17;;;;;;;7.85;100.00;101247.53;5094292;28;20028;-66
2022/10/18 02:31:10;;;;;;;8.95;1.85;;;;;;;7.76;100.00;101245.44;5094309;28;20015;-65
2022/10/18 02:33:45;;;;;;;6.82;1.30;;;;;;;7.86;100.00;101254.59;5094169;28;20020;-66
2022/10/18 02:36:36;;;;;;;7.30;1.92;;;;;;;7.80;100.00;101255.00;5094000;28;20043;-66
2022/10/18 02:39:10;;;;;;;5.55;1.50;;;;;;;7.86;100.00;101268.00;5093294;28;20035;-67
2022/10/18 02:41:36;;;;;;;4.00;1.10;;;;;;;7.78;100.00;101271.16;5112649;28;20031;-66
2022/10/18 02:44:02;;;;;;;3.67;1.25;;;;;;;7.83;100.00;101276.22;5094055;28;20027;-66
2022/10/18 02:46:27;;;;;;;6.32;1.30;;;;;;;7.91;100.00;101278.44;5112431;28;20032;-66
2022/10/18 02:48:53;;;;;;;4.10;1.20;;;;;;;7.90;100.00;101274.06;5112072;28;20391;-65
2022/10/18 02:51:19;;;;;;;3.72;1.50;;;;;;;7.83;100.00;101278.91;5093930;28;20059;-66
2022/10/18 02:53:44;;;;;;;5.85;1.75;;;;;;;7.79;100.00;101274.69;5094127;28;20035;-67
2022/10/18 02:56:10;;;;;;;5.60;1.33;;;;;;;7.83;100.00;101281.56;5093841;28;20127;-66
2022/10/18 02:58:35;;;;;;;5.65;1.98;;;;;;;7.83;100.00;101282.44;5093937;28;20205;-66
2022/10/18 03:01:01;;;;;;;6.55;2.17;;;;;;;7.85;100.00;101274.31;5111754;28;20024;-69
2022/10/18 03:03:26;;;;;;;7.47;1.20;;;;;;;7.83;100.00;101276.22;5114071;28;20042;-66
2022/10/18 03:05:52;;;;;;;5.10;1.63;;;;;;;7.84;100.00;101283.28;5116581;28;20384;-68
2022/10/18 03:08:18;;;;;;;8.98;1.48;;;;;;;7.88;100.00;101284.81;5116162;28;20054;-68
2022/10/18 03:10:45;;;;;;;8.80;1.75;;;;;;;7.88;100.00;101266.09;5116017;28;20035;-69
2022/10/18 03:13:11;;;;;;;5.07;1.63;;;;;;;7.87;100.00;101271.53;5115783;28;20031;-69
2022/10/18 03:15:37;;;;;;;3.03;1.13;;;;;;;7.87;100.00;101276.88;5097273;28;20063;-69
2022/10/18 03:18:02;;;;;;;7.13;1.52;;;;;;;7.74;100.00;101272.31;5116165;28;20055;-68
2022/10/18 03:20:28;;;;;;;4.88;1.20;;;;;;;7.69;100.00;101278.84;5115704;28;20024;-70
2022/10/18 03:22:54;;;;;;;8.35;1.38;;;;;;;7.85;100.00;101279.66;5116039;28;20030;-70
2022/10/18 03:25:19;;;;;;;3.83;1.02;;;;;;;7.81;100.00;101286.16;5115179;28;20016;-68
2022/10/18 03:27:45;;;;;;;4.43;1.13;;;;;;;7.85;100.00;101290.38;5097528;28;20093;-70
2022/10/18 03:30:10;;;;;;;5.20;1.08;;;;;;;7.90;100.00;101277.59;5097330;28;20024;-69
2022/10/18 03:32:39;;;;;;;4.05;0.90;;;;;;;7.81;100.00;101273.63;5115723;28;20035;-70
2022/10/18 03:35:06;;;;;;;8.05;1.30;;;;;;;7.73;100.00;101280.44;5115223;28;20114;-70
2022/10/18 03:37:32;;;;;;;6.53;1.58;;;;;;;7.69;100.00;101276.19;5115400;28;20456;-69
2022/10/18 03:39:58;;;;;;;8.73;1.45;;;;;;;7.71;100.00;101283.16;5115286;28;20059;-71
2022/10/18 03:42:24;;;;;;;5.45;1.30;;;;;;;7.78;100.00;101289.03;5096923;28;20024;-68
2022/10/18 03:44:49;;;;;;;7.28;2.28;;;;;;;7.80;100.00;101292.47;5115149;28;20024;-69
2022/10/18 03:47:15;;;;;;;7.13;1.98;;;;;;;7.78;100.00;101289.91;5096785;28;20027;-71
2022/10/18 03:49:40;;;;;;;6.45;2.40;;;;;;;7.71;100.00;101296.53;5114891;28;20027;-72
2022/10/18 03:52:06;;;;;;;7.35;2.80;;;;;;;7.81;100.00;101299.53;5115237;28;20032;-70
2022/10/18 03:54:31;;;;;;;8.45;3.15;;;;;;;7.78;100.00;101295.25;5096183;28;20035;-70
2022/10/18 03:56:57;;;;;;;6.80;3.47;;;;;;;7.83;100.00;101292.28;5096414;28;20108;-70
2022/10/18 03:59:22;;;;;;;8.15;3.83;;;;;;;7.77;100.00;101298.00;5114794;28;20043;-70
2022/10/18 04:01:48;;;;;;;7.75;3.60;;;;;;;7.81;100.00;101300.41;5096780;28;20126;-70
2022/10/18 04:04:14;;;;;;;7.95;3.72;;;;;;;7.95;100.00;101301.41;5114777;28;20031;-70
2022/10/18 04:06:40;;;;;;;8.25;3.75;;;;;;;7.93;100.00;101301.50;5114552;28;20081;-70
2022/10/18 04:09:06;;;;;;;8.93;3.30;;;;;;;7.89;100.00;101291.03;5114319;28;20035;-70
2022/10/18 04:11:33;;;;;;;9.38;4.05;;;;;;;7.87;100.00;101293.81;5096255;28;20027;-71
2022/10/18 04:13:58;;;;;;;11.57;3.40;;;;;;;7.74;100.00;101300.88;5114056;28;20483;-70
2022/10/18 04:16:24;;;;;;;8.10;4.28;;;;;;;7.71;100.00;101304.56;5095873;28;20047;-71
2022/10/18 04:18:49;;;;;;;6.50;3.53;;;;;;;7.73;100.00;101301.84;5114839;28;20489;-71
2022/10/18 04:21:16;;;;;;;7.32;3.47;;;;;;;7.72;100.00;101306.28;5095814;28;20028;-71
2022/10/18 04:23:42;;;;;;;7.20;3.60;;;;;;;7.76;100.00;101309.69;5114361;28;20028;-71
2022/10/18 04:26:08;;;;;;;8.73;4.65;;;;;;;7.98;100.00;101317.28;5096199;28;20016;-72
2022/10/18 04:28:34;;;;;;;11.57;4.70;;;;;;;8.01;100.00;101328.66;5096071;28;20030;-73
2022/10/18 04:31:00;;;;;;;8.63;4.03;;;;;;;8.09;100.00;101333.56;5113561;28;20102;-72
2022/10/18 04:33:25;;;;;;;11.27;4.07;;;;;;;8.04;100.00;101330.28;5095805;28;20107;-71
2022/10/18 04:35:52;;;;;;;10.35;4.20;;;;;;;8.04;100.00;101336.50;5114085;28;20111;-72
2022/10/18 04:38:18;;;;;;;13.00;4.47;;;;;;;8.08;100.00;101339.88;5114042;28;20026;-72
2022/10/18 04:40:44;;;;;;;7.72;4.13;;;;;;;8.04;100.00;101332.97;5114049;28;20084;-71
2022/10/18 04:43:10;;;;;;;10.88;4.50;;;;;;;8.10;100.00;101338.81;5095364;28;20484;-72
2022/10/18 04:45:35;;;;;;;9.95;3.58;;;;;;;8.05;100.00;101340.91;5114573;28;20035;-72
2022/10/18 04:48:01;;;;;;;10.13;4.97;;;;;;;8.01;100.00;101352.75;5113508;28;20039;-72
2022/10/18 04:50:27;;;;;;;8.60;4.50;;;;;;;8.01;100.00;101344.72;5113580;28;20032;-72
2022/10/18 04:52:52;;;;;;;10.68;4.30;;;;;;;8.01;100.00;101349.22;5113670;28;20523;-72
2022/10/18 04:55:19;;;;;;;9.00;4.45;;;;;;;8.04;100.00;101346.34;5095046;28;20023;-72
2022/10/18 04:57:44;;;;;;;10.50;4.10;;;;;;;7.93;100.00;101341.66;5113004;28;20126;-72
2022/10/18 05:00:11;;;;;;;9.40;4.22;;;;;;;7.91;100.00;101346.25;5094976;28;20122;-73
2022/10/18 05:02:37;;;;;;;7.40;4.47;;;;;;;7.92;100.00;101339.94;5113377;28;20084;-71
2022/10/18 05:05:03;;;;;;;7.78;4.20;;;;;;;7.84;100.00;101336.84;5094889;28;20032;-72
2022/10/18 05:07:29;;;;;;;9.75;4.43;;;;;;;7.83;100.00;101338.66;5094941;28;20031;-73
2022/10/18 05:09:54;;;;;;;10.18;5.00;;;;;;;7.69;100.00;101343.09;5094949;28;20028;-72
2022/10/18 05:12:21;;;;;;;10.10;4.47;;;;;;;7.78;100.00;101342.56;5094659;28;20502;-72
2022/10/18 05:14:47;;;;;;;11.52;4.43;;;;;;;7.78;100.00;101347.94;5113353;28;20027;-72
2022/10/18 05:17:13;;;;;;;7.38;4.30;;;;;;;7.87;100.00;101342.00;5094322;28;20095;-72
2022/10/18 05:19:38;;;;;;;9.82;4.75;;;;;;;7.87;100.00;101363.44;5094041;28;20027;-73
2022/10/18 05:22:04;;;;;;;11.20;4.60;;;;;;;7.87;100.00;101352.72;5112133;28;20477;-73
2022/10/18 05:24:29;;;;;;;8.82;4.65;;;;;;;7.89;100.00;101356.16;5112873;28;20379;-72
2022/10/18 05:26:55;;;;;;;8.57;4.47;;;;;;;7.86;100.00;101356.34;5112073;28;20503;-73
2022/10/18 05:29:21;;;;;;;9.27;4.07;;;;;;;7.82;100.00;101355.69;5112815;28;20194;-73
2022/10/18 05:31:48;;;;;;;9.18;4.20;;;;;;;7.85;100.00;101354.63;5094059;28;20259;-74
2022/10/18 05:34:13;;;;;;;7.10;4.47;;;;;;;7.93;100.00;101364.91;5093897;28;20023;-74
2022/10/18 05:36:39;;;;;;;8.32;4.85;;;;;;;8.04;100.00;101359.75;5112096;28;20042;-73
2022/10/18 05:39:06;;;;;;;10.45;4.63;;;;;;;8.00;100.00;101367.09;5093298;28;20122;-73
2022/10/18 05:41:31;;;;;;;7.60;4.10;;;;;;;8.03;100.00;101366.91;5093898;28;20507;-74
2022/10/18 05:43:57;;;;;;;7.95;4.93;;;;;;;8.03;100.00;101360.69;5112052;28;20028;-72
2022/10/18 05:46:23;;;;;;;9.32;4.97;;;;;;;8.04;100.00;101365.97;5112185;28;20167;-73
2022/10/18 05:48:50;;;;;;;5.80;3.90;;;;;;;7.99;100.00;101365.38;5112465;28;20043;-72
2022/10/18 05:51:17;;;;;;;8.70;4.25;;;;;;;7.99;100.00;101362.69;5093369;28;20029;-72
2022/10/18 05:53:43;;;;;;;7.82;4.38;;;;;;;7.99;100.00;101368.06;5111908;28;20501;-73
2022/10/18 05:56:10;;;;;;;7.82;4.32;;;;;;;8.05;100.00;101362.31;5111498;28;20027;-75
2022/10/18 05:58:37;;;;;;;5.43;3.53;;;;;;;8.13;100.00;101365.41;5111584;28;20588;-73
2022/10/18 06:01:04;;;;;;;8.50;3.33;;;;;;;8.17;100.00;101367.91;5093234;28;20034;-75
2022/10/18 06:03:30;;;;;;;6.45;3.92;;;;;;;8.12;100.00;101369.06;5112122;28;20039;-73
2022/10/18 06:06:10;;;;;;;7.25;3.58;;;;;;;8.21;100.00;101374.78;5111997;28;20080;-73
2022/10/18 06:08:37;;;;;;;9.40;4.35;;;;;;;8.08;100.00;101380.91;5114848;28;20027;-74
2022/10/18 06:11:14;;;;;;;7.35;3.30;;;;;;;8.11;100.00;101380.72;5111633;28;20062;-73
2022/10/18 06:13:45;;;;;;;6.32;3.80;;;;;;;8.03;100.00;101385.66;5111471;28;20019;-75
2022/10/18 06:16:12;;;;;;;7.68;3.70;;;;;;;8.17;100.00;101383.97;5110910;28;20035;-76
2022/10/18 06:18:38;;;;;;;5.75;3.28;;;;;;;8.17;100.00;101383.97;5093000;28;20450;-75
2022/10/18 06:21:04;;;;;;;5.95;2.92;;;;;;;8.25;100.00;101379.91;5110841;28;20392;-74
2022/10/18 06:23:30;;;;;;;4.57;2.45;;;;;;;8.25;100.00;101384.41;5092497;28;20071;-74
2022/10/18 06:26:04;;;;;;;5.28;2.35;;;;;;;8.36;100.00;101388.16;5111095;28;20063;-75
2022/10/18 06:28:30;;;;;;;3.53;2.63;;;;;;;8.40;100.00;101394.22;5110833;28;20111;-73
2022/10/18 06:30:56;;;;;;;4.35;2.10;;;;;;;8.36;100.00;101398.00;5093363;28;20115;-74
2022/10/18 06:33:23;;;;;;;4.63;2.28;;;;;;;8.30;100.00;101409.09;5093008;28;20028;-74
2022/10/18 06:35:56;;;;;;;5.72;1.88;;;;;;;8.28;100.00;101405.63;5092363;28;20059;-75
2022/10/18 06:38:22;;;;;;;5.55;2.17;;;;;;;8.41;100.00;101403.97;5112840;28;20098;-75
2022/10/18 06:40:48;;;;;;;3.88;2.20;;;;;;;8.33;100.00;101408.88;5097273;28;20222;-74
2022/10/18 06:43:13;;;;;;;2.67;1.48;;;;;;;8.45;100.00;101424.28;5096884;28;20039;-75
2022/10/18 06:45:39;;;;;;;2.08;1.33;;;;;;;8.46;100.00;101423.31;5115379;28;20059;-76
2022/10/18 06:48:05;;;;;;;5.93;2.08;;;;;;;8.46;100.00;101426.00;5096980;28;20027;-75
2022/10/18 06:50:30;;;;;;;3.30;1.30;;;;;;;8.42;100.00;101424.47;5115756;28;20076;-74
2022/10/18 06:52:57;;;;;;;5.97;1.90;;;;;;;8.62;100.00;101432.13;5096860;28;20031;-77
2022/10/18 06:55:22;;;;;;;7.55;1.38;;;;;;;8.64;100.00;101435.59;5097302;28;20027;-75
2022/10/18 06:57:48;;;;;;;8.98;4.95;;;;;;;8.39;100.00;101424.63;5097614;28;20051;-75
2022/10/18 07:00:14;;;;;;;2.88;1.00;;;;;;;8.54;100.00;101434.41;5097088;28;20035;-76
2022/10/18 07:02:40;;;;;;;2.40;0.80;;;;;;;8.61;100.00;101437.59;5096971;28;20384;-75
2022/10/18 07:05:10;;;;;;;3.60;1.17;;;;;;;8.68;100.00;101442.47;5097086;28;20035;-75
2022/10/18 07:07:36;;;;;;;3.75;1.10;;;;;;;8.73;100.00;101444.88;5096873;28;20034;-74
2022/10/18 07:10:02;;;;;;;2.38;0.85;;;;;;;8.65;100.00;101453.41;5115396;28;20032;-75
2022/10/18 07:12:28;;;;;;;2.50;1.17;;;;;;;8.48;100.00;101450.88;5096968;28;20027;-75
2022/10/18 07:14:54;;;;;;;1.85;0.70;;;;;;;8.58;100.00;101449.38;5097455;28;20098;-74
2022/10/18 07:17:19;;;;;;;2.80;0.68;;;;;;;8.69;100.00;101457.59;5115235;28;20023;-74
2022/10/18 07:19:45;;;;;;;3.42;0.70;;;;;;;8.79;100.00;101451.69;5115065;28;20495;-75
2022/10/18 07:22:10;;;;;;;1.23;0.88;;;;;;;8.88;100.00;101451.09;5115826;28;20425;-76
2022/10/18 07:24:36;;;;;;;3.22;0.80;;;;;;;8.73;100.00;101456.50;5096777;28;20042;-76
2022/10/18 07:27:02;;;;;;;2.15;0.60;;;;;;;8.78;100.00;101468.75;5096729;28;20120;-75
2022/10/18 07:29:28;;;;;;;2.55;0.55;;;;;;;8.66;100.00;101465.84;5114932;28;20352;-74
2022/10/18 07:31:53;;;;;;;2.47;0.52;;;;;;;8.78;100.00;101466.06;5115275;28;20036;-76
2022/10/18 07:34:19;;;;;;;1.27;0.70;;;;;;;8.91;100.00;101469.72;5096646;28;20039;-75
2022/10/18 07:36:45;;;;;;;2.75;0.40;;;;;;;9.14;100.00;101469.13;5115323;28;20112;-75
2022/10/18 07:39:11;;;;;;;1.65;0.40;;;;;;;9.04;100.00;101465.28;5096505;28;20016;-75
2022/10/18 07:41:36;;;;;;;3.63;0.80;;;;;;;9.19;100.00;101474.19;5097422;28;20036;-73
2022/10/18 07:44:03;;;;;;;2.22;0.68;;;;;;;9.30;100.00;101464.53;5116780;28;20027;-75
2022/10/18 07:46:29;;;;;;;1.88;0.52;;;;;;;9.04;100.00;101470.66;5096907;28;20081;-75
2022/10/18 07:48:57;;;;;;;2.55;0.20;;;;;;;9.00;100.00;101474.50;5097100;28;20118;-74
2022/10/18 07:51:22;;;;;;;1.88;0.55;;;;;;;9.05;100.00;101478.59;5096990;28;20502;-75
2022/10/18 07:53:48;;;;;;;1.58;0.60;;;;;;;9.08;100.00;101472.22;5114635;28;20061;-74
2022/10/18 07:56:19;;;;;;;2.05;0.52;;;;;;;9.31;100.00;101479.66;5096433;28;20058;-75
2022/10/18 07:58:46;;;;;;;0.47;0.40;;;;;;;9.45;100.00;101476.09;5114587;28;20147;-74
2022/10/18 08:01:13;;;;;;;1.80;0.40;;;;;;;9.34;100.00;101483.97;5095823;28;20055;-74
2022/10/18 08:03:40;;;;;;;1.55;0.52;;;;;;;9.25;100.00;101485.44;5096269;28;20124;-75
2022/10/18 08:06:08;;;;;;;11.98;8.52;;;;;;;9.41;100.00;101479.09;5114686;28;20488;-75
2022/10/18 08:08:35;;;;;;;1.30;0.73;;;;;;;9.23;100.00;101481.94;5114714;28;20027;-75
2022/10/18 08:11:04;;;;;;;1.30;0.45;;;;;;;9.27;100.00;101478.13;5114474;28;20024;-76
2022/10/18 08:13:29;;;;;;;2.17;0.63;;;;;;;9.11;100.00;101480.06;5114275;28;20401;-75
2022/10/18 08:16:23;;;;;;;0.93;0.40;;;;;;;9.00;100.00;101479.84;5115247;28;20119;-75
2022/10/18 08:18:49;;;;;;;1.63;0.30;;;;;;;9.09;100.00;101481.97;5093215;28;20391;-73
2022/10/18 08:21:16;;;;;;;2.05;0.90;;;;;;;9.14;100.00;101479.00;5095871;28;20036;-75
2022/10/18 08:23:42;;;;;;;1.52;0.40;;;;;;;9.01;100.00;101476.22;5095734;28;20036;-74
2022/10/18 08:26:11;;;;;;;1.27;0.38;;;;;;;9.16;100.00;101477.94;5114296;28;20089;-73
2022/10/18 08:28:38;;;;;;;2.67;0.45;;;;;;;9.08;100.00;101466.84;5096422;28;20028;-74
2022/10/18 08:31:10;;;;;;;2.10;1.15;;;;;;;8.99;100.00;101465.59;5114326;28;20030;-75
2022/10/18 08:33:36;;;;;;;0.63;0.57;;;;;;;9.14;100.00;101474.50;5096044;28;20051;-75
2022/10/18 08:36:04;;;;;;;1.95;0.40;;;;;;;9.12;100.00;101478.25;5095998;28;20075;-75
2022/10/18 08:38:31;;;;;;;0.50;0.20;;;;;;;9.05;100.00;101475.91;5096000;28;20059;-72
2022/10/18 08:41:18;;;;;;;3.05;0.38;;;;;;;8.92;100.00;101476.81;5095635;28;20061;-76
2022/10/18 08:44:05;;;;;;;2.22;0.30;;;;;;;8.86;100.00;101482.53;5114457;28;20058;-75
2022/10/18 08:46:33;;;;;;;1.85;0.45;;;;;;;9.05;100.00;101483.09;5095101;28;20514;-75
2022/10/18 08:49:01;;;;;;;1.25;0.85;;;;;;;8.82;100.00;101491.72;5113771;28;20035;-74
2022/10/18 08:51:34;;;;;;;1.98;0.60;;;;;;;8.88;100.00;101491.34;5113882;28;20480;-75
2022/10/18 08:54:09;;;;;;;1.25;0.70;;;;;;;8.88;100.00;101496.69;5096876;28;20391;-76
2022/10/18 08:56:35;;;;;;;3.08;1.30;;;;;;;8.77;100.00;101493.81;5098593;28;20537;-73
2022/10/18 08:59:03;;;;;;;1.60;0.60;;;;;;;9.01;100.00;101500.34;5096951;28;20048;-73
2022/10/18 09:01:45;;;;;;;2.10;0.80;;;;;;;9.10;100.00;101493.56;5112639;28;20039;-75
2022/10/18 09:04:38;;;;;;;1.10;0.50;;;;;;;8.99;100.00;101488.88;5095037;28;20532;-75
2022/10/18 09:07:39;;;;;;;1.58;0.75;;;;;;;8.90;100.00;101484.06;5094330;28;20154;-75
2022/10/18 09:10:43;;;;;;;1.05;0.65;;;;;;;8.93;100.00;101489.25;5094209;28;20042;-76
2022/10/18 09:13:31;;;;;;;0.50;0.45;;;;;;;9.00;100.00;101501.31;5060521;28;20047;-75
2022/10/18 09:16:12;;;;;;;1.77;0.85;;;;;;;8.97;100.00;101496.16;5113100;28;20099;-75
2022/10/18 09:19:11;;;;;;;1.73;0.70;;;;;;;9.11;100.00;101493.47;5094998;28;20051;-75
2022/10/18 09:21:37;;;;;;;1.30;0.98;;;;;;;9.04;99.33;101492.97;5094240;28;20027;-75
2022/10/18 09:24:14;;;;;;;1.77;0.95;;;;;;;9.12;100.00;101481.78;5094724;28;20032;-75
2022/10/18 09:26:48;;;;;;;2.03;1.42;;;;;;;8.96;99.43;101484.56;5094191;28;20023;-75
2022/10/18 09:29:49;;;;;;;2.58;1.20;;;;;;;9.05;99.64;101489.34;5116846;28;20048;-75
2022/10/18 09:32:24;;;;;;;1.50;1.20;;;;;;;9.22;100.00;101482.03;5124391;28;20068;-73
2022/10/18 09:35:02;;;;;;;3.85;1.00;;;;;;;9.18;99.32;101484.06;5106601;28;20100;-76
2022/10/18 09:37:31;;;;;;;2.33;1.10;;;;;;;9.05;98.93;101477.75;5095017;28;20032;-74
2022/10/18 09:40:13;;;;;;;3.97;1.77;;;;;;;8.86;99.54;101478.03;5112494;28;20034;-74
2022/10/18 09:42:44;;;;;;;2.50;1.60;;;;;;;9.02;98.24;101483.31;5093726;28;20088;-74
2022/10/18 09:45:15;;;;;;;2.92;1.27;;;;;;;9.11;99.06;101482.75;5111922;28;20106;-74
2022/10/18 09:47:58;;;;;;;4.32;1.45;;;;;;;9.22;100.00;101485.59;5094257;28;20078;-77
2022/10/18 09:50:39;;;;;;;2.67;1.35;;;;;;;9.43;100.00;101477.16;5094071;28;20028;-75
2022/10/18 09:53:12;;;;;;;3.58;1.92;;;;;;;9.26;100.00;101479.09;5093147;28;20043;-75
2022/10/18 09:55:50;;;;;;;2.70;1.40;;;;;;;9.17;99.88;101476.97;5093568;28;20115;-76
2022/10/18 09:58:19;;;;;;;2.17;1.35;;;;;;;9.20;100.00;101476.78;5093272;28;20071;-76
2022/10/18 10:00:51;;;;;;;1.52;0.70;;;;;;;9.10;99.70;101481.03;5111681;28;20396;-76
2022/10/18 10:03:17;;;;;;;4.80;1.48;;;;;;;9.19;99.67;101480.44;5093473;28;20023;-75
2022/10/18 10:05:43;;;;;;;18.13;11.73;;;;;;;9.44;99.96;101481.56;5094207;28;20034;-76
2022/10/18 10:08:09;;;;;;;3.30;1.70;;;;;;;9.73;100.00;101477.84;5113033;28;20035;-77
2022/10/18 10:10:39;;;;;;;2.05;1.05;;;;;;;9.72;99.89;101477.94;5094848;28;20036;-76
2022/10/18 10:13:21;;;;;;;3.80;0.80;;;;;;;9.80;97.63;101465.75;5093390;28;20039;-76
2022/10/18 10:16:01;;;;;;;2.53;0.70;;;;;;;9.70;96.31;101470.00;5111906;28;20035;-76
2022/10/18 10:18:39;;;;;;;2.47;0.80;;;;;;;9.72;92.74;101470.75;5111915;28;20486;-76
2022/10/18 10:21:12;;;;;;;4.90;2.70;;;;;;;9.95;91.44;101470.13;5093529;28;20040;-76
2022/10/18 10:23:53;;;;;;;0.98;0.60;;;;;;;9.96;89.07;101465.59;5112143;28;20118;-76
2022/10/18 10:26:26;;;;;;;1.08;0.60;;;;;;;9.96;88.15;101468.28;5112203;28;20472;-76
2022/10/18 10:28:51;;;;;;;1.52;0.50;;;;;;;10.18;88.04;101470.41;5112491;28;20072;-75
2022/10/18 10:31:23;;;;;;;6.80;4.63;;;;;;;10.37;86.67;101457.47;5093196;28;20023;-76
2022/10/18 10:34:19;;;;;;;2.53;0.80;;;;;;;10.69;83.66;101457.09;5093985;28;20400;-76
2022/10/18 10:36:48;;;;;;;;;;;;;;;11.18;79.68;101459.00;5093791;28;20032;-75
2022/10/18 10:39:17;;;;;;;4.22;1.10;;;;;;;11.27;77.04;101461.91;5111347;28;19911;-76
2022/10/18 10:41:54;;;;;;;1.58;0.60;;;;;;;11.84;76.31;101452.41;5092903;28;20104;-76
2022/10/18 10:44:23;;;;;;;2.10;1.30;;;;;;;12.11;76.10;101450.34;5111672;28;20070;-77
2022/10/18 10:46:50;;;;;;;2.70;1.50;;;;;;;11.66;74.86;101447.38;5110718;28;20394;-75
2022/10/18 10:49:36;;;;;;;2.05;1.70;;;;;;;10.67;78.15;101459.03;5111521;28;20122;-76
2022/10/18 10:52:03;;;;;;;1.67;0.73;;;;;;;10.53;79.71;101454.59;5075381;28;20035;-75
2022/10/18 10:54:35;;;;;;;1.77;0.80;;;;;;;11.29;78.16;101453.72;5093320;28;20055;-73
2022/10/18 10:57:11;;;;;;;3.05;1.73;;;;;;;10.64;80.10;101445.78;5093519;28;20408;-75
2022/10/18 10:59:43;;;;;;;2.08;1.05;;;;;;;11.19;78.32;101453.50;5113774;28;20485;-75
2022/10/18 11:02:19;;;;;;;1.50;0.90;;;;;;;10.84;79.65;101453.31;5093580;28;20027;-76
2022/10/18 11:04:47;;;;;;;5.60;1.02;;;;;;;10.71;80.16;101463.22;5094126;28;20055;-74
2022/10/18 11:07:39;;;;;;;3.58;1.08;;;;;;;10.44;80.52;101455.25;5095265;28;20085;-75
2022/10/18 11:10:08;;;;;;;2.97;0.70;;;;;;;10.52;80.61;101464.50;5082700;28;20044;-76
2022/10/18 11:12:38;;;;;;;1.65;0.60;;;;;;;10.08;81.49;101466.63;5094660;28;20031;-76
2022/10/18 11:15:16;;;;;;;1.08;0.55;;;;;;;9.80;81.39;101460.38;5112453;28;20040;-76
2022/10/18 11:17:54;;;;;;;2.38;1.05;;;;;;;10.00;81.66;101469.81;5093324;28;20024;-73
2022/10/18 11:20:28;;;;;;;5.78;0.70;;;;;;;10.04;81.54;101475.81;5111663;28;20043;-74
2022/10/18 11:23:05;;;;;;;0.68;0.50;;;;;;;10.21;80.17;101471.09;5093425;28;20035;-74
2022/10/18 11:25:52;;;;;;;0.55;0.52;;;;;;;9.94;80.34;101478.28;5115221;28;20541;-74
2022/10/18 11:28:31;;;;;;;4.40;0.60;;;;;;;10.05;79.52;101472.19;5115388;28;20032;-74
2022/10/18 11:31:53;;;;;;;1.67;0.60;;;;;;;10.06;79.72;101471.22;5115294;28;20035;-76
2022/10/18 11:35:04;;;;;;;1.75;0.50;;;;;;;9.98;80.44;101468.19;5070175;28;20047;-73
2022/10/18 11:37:55;;;;;;;2.67;0.47;;;;;;;10.02;80.30;101475.06;5110341;28;20087;-74
2022/10/18 11:40:48;;;;;;;1.02;0.63;;;;;;;9.86;80.68;101476.09;5115429;28;20027;-73
2022/10/18 11:43:39;;;;;;;1.15;0.45;;;;;;;9.80;80.74;101473.81;5096417;28;20076;-74
2022/10/18 11:46:32;;;;;;;3.97;0.50;;;;;;;9.72;81.86;101462.69;5097510;28;20027;-74